Time;durP1;ratioP1;P1;durP2;ratioP2;P2;SDS_P1;SDS_P2;PMS_P1;PMS_P2;Temp;Humidity;BMP_temperature;BMP_pressure;BME280_temperature;BME280_humidity;BME280_pressure;Samples;Min_cycle;Max_cycle;Signal;HPM_P1;HPM_P2
2023/03/19 00:02:01;;;;;;;8.73;6.65;;;;;;;12.03;100.00;101075.44;5067585;28;20029;-63
2023/03/19 00:04:26;;;;;;;13.02;7.03;;;;;;;12.04;100.00;101088.59;5068614;28;20113;-64
2023/03/19 00:06:52;;;;;;;11.55;8.07;;;;;;;11.96;100.00;101088.91;5069107;28;20052;-62
2023/03/19 00:09:18;;;;;;;11.02;8.20;;;;;;;12.05;100.00;101085.06;5070625;28;20445;-63
2023/03/19 00:11:46;;;;;;;10.50;7.25;;;;;;;12.09;100.00;101089.34;5052497;28;20024;-63
2023/03/19 00:14:12;;;;;;;8.55;7.13;;;;;;;12.07;100.00;101091.16;5050884;28;20044;-63
2023/03/19 00:16:38;;;;;;;10.10;7.13;;;;;;;12.12;100.00;101091.00;5067529;28;20389;-64
2023/03/19 00:19:03;;;;;;;10.02;7.68;;;;;;;12.07;100.00;101103.53;5068437;28;20513;-65
2023/03/19 00:21:29;;;;;;;11.65;7.45;;;;;;;11.95;100.00;101096.88;5065770;28;20048;-63
2023/03/19 00:23:59;;;;;;;11.35;8.15;;;;;;;11.90;100.00;101098.78;5068297;28;20024;-66
2023/03/19 00:26:26;;;;;;;10.45;8.48;;;;;;;11.86;100.00;101098.06;5066868;28;20025;-63
2023/03/19 00:28:51;;;;;;;13.88;8.73;;;;;;;11.75;100.00;101106.34;5068324;28;20473;-63
2023/03/19 00:31:17;;;;;;;13.00;9.13;;;;;;;11.76;100.00;101105.41;5067906;28;20031;-65
2023/03/19 00:33:42;;;;;;;10.85;8.82;;;;;;;11.75;100.00;101101.06;5066904;28;20021;-64
2023/03/19 00:36:09;;;;;;;12.25;8.73;;;;;;;11.72;100.00;101103.81;5066885;28;20040;-67
2023/03/19 00:38:35;;;;;;;11.88;9.52;;;;;;;11.63;100.00;101103.19;5067654;28;20107;-63
2023/03/19 00:41:01;;;;;;;12.25;9.25;;;;;;;11.63;100.00;101107.63;5067908;28;20417;-65
2023/03/19 00:43:27;;;;;;;13.35;10.18;;;;;;;11.63;100.00;101108.47;5062365;28;20025;-64
2023/03/19 00:45:52;;;;;;;11.80;9.77;;;;;;;11.54;100.00;101114.09;5047796;28;20032;-65
2023/03/19 00:48:18;;;;;;;12.63;10.23;;;;;;;11.48;100.00;101115.16;5048022;28;20025;-65
2023/03/19 00:50:43;;;;;;;15.70;10.32;;;;;;;11.44;100.00;101108.22;5067794;28;20675;-64
2023/03/19 00:53:09;;;;;;;15.00;11.32;;;;;;;11.42;100.00;101110.09;5067189;28;20392;-67
2023/03/19 00:55:34;;;;;;;17.75;11.18;;;;;;;11.38;100.00;101117.22;5067506;28;20055;-64
2023/03/19 00:58:00;;;;;;;14.43;11.00;;;;;;;11.37;100.00;101115.50;5050023;28;20032;-63
2023/03/19 01:00:25;;;;;;;16.60;12.50;;;;;;;11.37;100.00;101115.50;5067065;28;20400;-64
2023/03/19 01:02:51;;;;;;;17.20;12.43;;;;;;;11.37;100.00;101115.50;5067621;28;20111;-64
2023/03/19 01:05:16;;;;;;;14.45;11.82;;;;;;;11.41;100.00;101115.41;5067076;28;20092;-65
2023/03/19 01:07:42;;;;;;;18.25;12.23;;;;;;;11.42;100.00;101109.22;5066650;28;20490;-65
2023/03/19 01:10:08;;;;;;;14.55;12.38;;;;;;;11.50;100.00;101112.47;5066329;28;20449;-65
2023/03/19 01:12:34;;;;;;;15.70;12.35;;;;;;;11.46;100.00;101118.75;5068081;28;20029;-64
2023/03/19 01:14:59;;;;;;;15.70;11.60;;;;;;;11.46;100.00;101111.69;5067367;28;20078;-67
2023/03/19 01:17:25;;;;;;;17.83;12.18;;;;;;;11.49;100.00;101113.38;5053914;28;20035;-65
2023/03/19 01:19:50;;;;;;;13.30;11.18;;;;;;;11.56;100.00;101111.41;5048082;28;20025;-65
2023/03/19 01:22:16;;;;;;;16.02;12.15;;;;;;;11.58;100.00;101107.78;5046064;28;20090;-66
2023/03/19 01:24:41;;;;;;;17.83;11.52;;;;;;;11.61;100.00;101117.38;5047614;28;20025;-65
2023/03/19 01:27:07;;;;;;;16.80;11.45;;;;;;;11.61;100.00;101120.00;5032075;28;20135;-64
2023/03/19 01:29:33;;;;;;;16.40;11.40;;;;;;;11.55;100.00;101129.00;5067099;28;20048;-66
2023/03/19 01:31:58;;;;;;;17.92;11.35;;;;;;;11.61;100.00;101122.66;5066292;28;20088;-66
2023/03/19 01:34:23;;;;;;;14.88;11.82;;;;;;;11.57;100.00;101123.66;5047148;28;20534;-65
2023/03/19 01:36:49;;;;;;;14.20;11.85;;;;;;;11.70;100.00;101129.38;5045903;28;20051;-66
2023/03/19 01:39:14;;;;;;;14.57;11.52;;;;;;;11.69;100.00;101125.91;5029212;28;20021;-65
2023/03/19 01:41:40;;;;;;;17.58;12.38;;;;;;;11.68;100.00;101126.78;5047181;28;20469;-65
2023/03/19 01:44:28;;;;;;;16.90;12.75;;;;;;;11.65;100.00;101126.06;5057168;28;20350;-64
2023/03/19 01:46:55;;;;;;;14.82;11.65;;;;;;;11.56;100.00;101124.59;5067125;28;20044;-65
2023/03/19 01:49:22;;;;;;;19.15;13.70;;;;;;;11.42;100.00;101123.28;5048301;28;20073;-66
2023/03/19 01:51:47;;;;;;;21.83;14.65;;;;;;;11.33;100.00;101126.19;5066477;28;20108;-66
2023/03/19 01:54:16;;;;;;;19.27;15.40;;;;;;;11.32;100.00;101137.69;5045346;28;20128;-65
2023/03/19 01:56:42;;;;;;;18.55;14.50;;;;;;;11.29;100.00;101135.97;5029295;28;20032;-65
2023/03/19 01:59:17;;;;;;;17.83;13.02;;;;;;;11.18;100.00;101132.84;5028971;28;20029;-65
2023/03/19 02:01:48;;;;;;;20.52;14.32;;;;;;;11.07;100.00;101128.75;5029242;28;20638;-64
2023/03/19 02:04:14;;;;;;;19.48;13.77;;;;;;;10.96;100.00;101123.81;5047699;28;20115;-64
2023/03/19 02:06:40;;;;;;;20.92;14.77;;;;;;;10.91;100.00;101116.97;5064796;28;20131;-66
2023/03/19 02:09:06;;;;;;;24.38;15.70;;;;;;;10.81;100.00;101125.16;5066094;28;20549;-65
2023/03/19 02:11:32;;;;;;;24.95;15.45;;;;;;;10.68;100.00;101121.16;5113690;22;20615;-65
2023/03/19 02:13:57;;;;;;;21.83;14.50;;;;;;;10.54;100.00;101132.97;5046647;28;20029;-65
2023/03/19 02:16:22;;;;;;;22.85;15.38;;;;;;;10.47;100.00;101128.78;5046420;28;20029;-65
2023/03/19 02:18:48;;;;;;;25.60;16.30;;;;;;;10.38;100.00;101129.03;5046434;28;20531;-65
2023/03/19 02:21:16;;;;;;;27.58;16.52;;;;;;;10.33;100.00;101130.00;5049351;28;20017;-65
2023/03/19 02:23:54;;;;;;;25.65;17.13;;;;;;;10.26;100.00;101130.25;5029952;28;20084;-65
2023/03/19 02:26:24;;;;;;;21.80;15.23;;;;;;;10.21;100.00;101128.56;5032046;28;20025;-65
2023/03/19 02:28:50;;;;;;;20.92;14.52;;;;;;;10.17;100.00;101131.38;5031983;28;20025;-66
2023/03/19 02:31:17;;;;;;;22.52;13.38;;;;;;;10.08;100.00;101133.31;5048958;28;20025;-65
2023/03/19 02:33:43;;;;;;;18.42;12.63;;;;;;;10.10;100.00;101134.16;5050111;28;20048;-65
2023/03/19 02:36:15;;;;;;;16.48;12.27;;;;;;;10.09;100.00;101131.56;5048551;28;20033;-66
2023/03/19 02:38:41;;;;;;;17.15;11.68;;;;;;;10.09;100.00;101131.56;5032427;28;20416;-66
2023/03/19 02:41:07;;;;;;;18.58;11.38;;;;;;;10.01;100.00;101137.03;5049567;28;20120;-65
2023/03/19 02:43:35;;;;;;;17.55;11.65;;;;;;;9.98;100.00;101139.75;5047963;28;20029;-66
2023/03/19 02:46:01;;;;;;;21.98;11.55;;;;;;;9.92;100.00;101137.28;5031731;28;20025;-65
2023/03/19 02:48:27;;;;;;;16.83;11.15;;;;;;;9.91;100.00;101135.56;5031078;28;20475;-67
2023/03/19 02:50:52;;;;;;;18.83;11.57;;;;;;;9.90;100.00;101147.84;5048561;28;20108;-65
2023/03/19 02:53:18;;;;;;;16.45;12.07;;;;;;;9.75;100.00;101143.84;5048548;28;20142;-65
2023/03/19 02:55:43;;;;;;;21.42;12.07;;;;;;;9.72;100.00;101143.91;5027948;28;20103;-65
2023/03/19 02:58:09;;;;;;;18.55;11.60;;;;;;;9.68;100.00;101152.78;5028864;28;20017;-67
2023/03/19 03:00:34;;;;;;;17.55;12.18;;;;;;;9.63;100.00;101139.75;5040641;28;20032;-66
2023/03/19 03:03:00;;;;;;;17.75;13.30;;;;;;;9.66;100.00;101141.47;4998345;28;20456;-65
2023/03/19 03:05:26;;;;;;;20.08;13.23;;;;;;;9.67;100.00;101143.19;5029916;28;20033;-66
2023/03/19 03:07:52;;;;;;;20.20;13.43;;;;;;;9.68;100.00;101137.88;5049041;28;20030;-65
2023/03/19 03:10:17;;;;;;;23.33;13.65;;;;;;;9.77;100.00;101139.41;5048931;28;20509;-68
2023/03/19 03:12:43;;;;;;;21.27;14.27;;;;;;;9.78;100.00;101132.38;5048335;28;20049;-67
2023/03/19 03:15:09;;;;;;;23.73;13.90;;;;;;;9.84;100.00;101134.84;5049514;28;20082;-67
2023/03/19 03:17:38;;;;;;;22.80;12.77;;;;;;;9.95;100.00;101137.19;5048041;28;20033;-66
2023/03/19 03:20:05;;;;;;;20.75;12.65;;;;;;;10.01;100.00;101129.13;5049212;28;20028;-66
2023/03/19 03:22:30;;;;;;;24.33;13.88;;;;;;;10.09;100.00;101135.03;5047650;28;20048;-66
2023/03/19 03:24:56;;;;;;;24.13;14.68;;;;;;;10.14;100.00;101134.09;5047637;28;20461;-66
2023/03/19 03:27:22;;;;;;;22.75;15.77;;;;;;;10.21;100.00;101144.38;5047383;28;20135;-66
2023/03/19 03:29:47;;;;;;;27.95;17.45;;;;;;;10.19;100.00;101154.09;5047075;28;20116;-67
2023/03/19 03:32:13;;;;;;;23.30;17.13;;;;;;;10.18;100.00;101141.81;5047505;28;20033;-65
2023/03/19 03:34:38;;;;;;;21.77;16.60;;;;;;;10.32;100.00;101146.72;5045486;28;20037;-65
2023/03/19 03:37:03;;;;;;;22.92;15.10;;;;;;;10.39;100.00;101150.06;5028250;28;20115;-65
2023/03/19 03:39:29;;;;;;;17.52;13.88;;;;;;;10.49;100.00;101140.16;5032598;28;20112;-65
2023/03/19 03:41:54;;;;;;;19.38;14.40;;;;;;;10.46;100.00;101134.97;5049162;28;20366;-65
2023/03/19 03:44:20;;;;;;;20.73;13.93;;;;;;;10.41;100.00;101137.69;5047651;28;20082;-67
2023/03/19 03:46:45;;;;;;;22.85;13.93;;;;;;;10.44;100.00;101136.75;5049244;28;20036;-67
2023/03/19 03:49:11;;;;;;;18.00;12.38;;;;;;;10.40;100.00;101135.09;5030148;28;20029;-66
2023/03/19 03:51:36;;;;;;;15.40;12.50;;;;;;;10.43;100.00;101137.66;5047941;28;20045;-66
2023/03/19 03:54:02;;;;;;;14.80;12.13;;;;;;;10.42;100.00;101135.94;5029823;28;20071;-66
2023/03/19 03:56:27;;;;;;;16.83;13.27;;;;;;;10.42;100.00;101146.47;5049337;28;20029;-66
2023/03/19 03:58:52;;;;;;;17.95;12.70;;;;;;;10.40;100.00;101140.38;5030675;28;20029;-66
2023/03/19 04:01:18;;;;;;;15.32;11.77;;;;;;;10.47;100.00;101141.97;5048363;28;20040;-66
2023/03/19 04:03:44;;;;;;;16.35;12.27;;;;;;;10.44;100.00;101140.25;5047943;28;20040;-67
2023/03/19 04:06:14;;;;;;;17.00;12.02;;;;;;;10.44;100.00;101145.50;5048134;28;20025;-67
2023/03/19 04:08:40;;;;;;;17.17;11.82;;;;;;;10.36;100.00;101140.47;5048097;28;20029;-66
2023/03/19 04:11:06;;;;;;;16.63;12.80;;;;;;;10.26;100.00;101139.00;5049016;28;20052;-66
2023/03/19 04:13:35;;;;;;;16.80;12.75;;;;;;;10.28;100.00;101146.84;5047343;28;20718;-66
2023/03/19 04:16:02;;;;;;;16.05;13.60;;;;;;;10.21;100.00;101141.75;5048968;28;20506;-66
2023/03/19 04:18:27;;;;;;;17.90;14.18;;;;;;;10.30;100.00;101150.31;5045922;28;20429;-65
2023/03/19 04:20:53;;;;;;;21.27;14.75;;;;;;;10.29;100.00;101149.44;5009787;28;20075;-66
2023/03/19 04:23:18;;;;;;;20.70;16.58;;;;;;;10.23;100.00;101157.50;5027191;28;20108;-66
2023/03/19 04:25:43;;;;;;;18.80;16.10;;;;;;;10.30;100.00;101155.59;5046208;28;20500;-66
2023/03/19 04:28:09;;;;;;;25.20;18.05;;;;;;;10.32;100.00;101154.63;5029465;28;20021;-67
2023/03/19 04:30:34;;;;;;;22.85;17.40;;;;;;;10.27;100.00;101158.31;5047377;28;20389;-66
2023/03/19 04:33:00;;;;;;;22.77;18.25;;;;;;;10.23;100.00;101160.13;5029997;28;20100;-66
2023/03/19 04:35:26;;;;;;;26.75;20.13;;;;;;;10.23;100.00;101165.41;5044005;28;20017;-67
2023/03/19 04:37:51;;;;;;;23.95;18.77;;;;;;;10.24;100.00;101157.47;5047394;28;20112;-66
2023/03/19 04:40:17;;;;;;;24.38;19.67;;;;;;;10.36;100.00;101168.59;5046060;28;20032;-66
2023/03/19 04:42:43;;;;;;;22.40;18.25;;;;;;;10.16;100.00;101180.53;5047370;28;20468;-67
2023/03/19 04:45:09;;;;;;;28.08;20.00;;;;;;;10.21;100.00;101188.31;5046248;28;20079;-66
2023/03/19 04:47:34;;;;;;;28.33;21.23;;;;;;;10.21;100.00;101194.41;5048265;28;20029;-66
2023/03/19 04:49:59;;;;;;;26.63;20.20;;;;;;;10.10;100.00;101189.47;5047398;28;20470;-65
2023/03/19 04:52:25;;;;;;;28.50;21.15;;;;;;;10.15;100.00;101180.56;5046500;28;20037;-66
2023/03/19 04:54:50;;;;;;;30.25;21.17;;;;;;;10.09;100.00;101186.88;5047101;28;20029;-66
2023/03/19 04:57:16;;;;;;;35.50;22.60;;;;;;;10.02;100.00;101188.78;5046464;28;20039;-65
2023/03/19 04:59:41;;;;;;;35.47;22.05;;;;;;;10.03;100.00;101193.16;5047222;28;20116;-67
2023/03/19 05:02:07;;;;;;;41.25;26.10;;;;;;;10.05;100.00;101193.13;5034296;28;20421;-66
2023/03/19 05:04:32;;;;;;;43.70;27.08;;;;;;;10.00;100.00;101195.88;5027225;28;20033;-66
2023/03/19 05:06:57;;;;;;;49.05;30.63;;;;;;;9.94;100.00;101198.66;5003044;28;20036;-66
2023/03/19 05:09:23;;;;;;;55.42;31.80;;;;;;;9.93;100.00;101191.66;5046737;28;20083;-66
2023/03/19 05:11:48;;;;;;;54.95;31.65;;;;;;;9.83;100.00;101193.66;5045813;28;20033;-66
2023/03/19 05:14:13;;;;;;;56.10;31.48;;;;;;;9.81;100.00;101192.84;5046336;28;20393;-66
2023/03/19 05:16:39;;;;;;;55.45;33.25;;;;;;;9.93;100.00;101200.41;5046705;28;20070;-68
2023/03/19 05:19:04;;;;;;;55.83;33.05;;;;;;;9.89;100.00;101197.88;5046992;28;20033;-66
2023/03/19 05:21:29;;;;;;;60.70;33.72;;;;;;;9.84;100.00;101201.50;5044928;28;20017;-66
2023/03/19 05:23:56;;;;;;;57.90;33.50;;;;;;;9.86;100.00;101202.34;5046767;28;20025;-66
2023/03/19 05:26:21;;;;;;;59.28;33.22;;;;;;;9.79;100.00;101208.66;5045825;28;20025;-66
2023/03/19 05:28:47;;;;;;;62.72;34.13;;;;;;;9.80;100.00;101206.88;5047200;28;20036;-66
2023/03/19 05:31:12;;;;;;;63.33;35.00;;;;;;;9.75;100.00;101212.25;5045798;28;20039;-67
2023/03/19 05:33:37;;;;;;;65.95;34.72;;;;;;;9.70;100.00;101230.78;5046929;28;20028;-67
2023/03/19 05:36:03;;;;;;;59.75;33.47;;;;;;;9.73;100.00;101235.13;5045324;28;20040;-66
2023/03/19 05:38:29;;;;;;;62.13;32.45;;;;;;;9.75;100.00;101235.94;5029163;28;20120;-67
2023/03/19 05:40:54;;;;;;;60.60;32.90;;;;;;;9.74;100.00;101231.59;5046284;28;20178;-65
2023/03/19 05:43:19;;;;;;;61.65;32.97;;;;;;;9.73;100.00;101243.03;5046312;28;20029;-66
2023/03/19 05:45:51;;;;;;;53.42;29.40;;;;;;;9.72;100.00;101241.28;5046370;28;20032;-66
2023/03/19 05:48:16;;;;;;;57.65;32.30;;;;;;;9.81;100.00;101235.78;5046051;28;20104;-66
2023/03/19 05:50:42;;;;;;;58.35;32.63;;;;;;;9.78;100.00;101242.91;5046347;28;20111;-67
2023/03/19 05:53:07;;;;;;;63.03;32.78;;;;;;;9.73;100.00;101246.50;5025146;28;20461;-66
2023/03/19 05:55:32;;;;;;;62.58;32.55;;;;;;;9.78;100.00;101241.13;5048877;28;20078;-65
2023/03/19 05:57:58;;;;;;;70.65;35.75;;;;;;;9.73;100.00;101249.13;5032988;28;20039;-66
2023/03/19 06:00:23;;;;;;;65.22;34.08;;;;;;;9.75;100.00;101258.78;5050910;28;20092;-66
2023/03/19 06:02:50;;;;;;;70.40;35.75;;;;;;;9.77;100.00;101262.22;5050698;28;20036;-66
2023/03/19 06:05:15;;;;;;;68.75;34.40;;;;;;;9.77;100.00;101263.09;5050490;28;20025;-66
2023/03/19 06:07:42;;;;;;;67.35;33.25;;;;;;;9.73;100.00;101262.28;5049910;28;20032;-66
2023/03/19 06:10:08;;;;;;;65.45;32.95;;;;;;;9.78;100.00;101256.91;5050612;28;20067;-66
2023/03/19 06:12:33;;;;;;;65.00;33.33;;;;;;;9.62;100.00;101253.78;5050578;28;20060;-65
2023/03/19 06:14:58;;;;;;;63.05;31.75;;;;;;;9.75;100.00;101259.63;5050042;28;20025;-66
2023/03/19 06:17:24;;;;;;;64.38;31.88;;;;;;;9.83;100.00;101252.44;5050182;28;20040;-66
2023/03/19 06:19:49;;;;;;;68.40;33.03;;;;;;;9.78;100.00;101256.91;5050356;28;20057;-65
2023/03/19 06:22:15;;;;;;;72.78;33.78;;;;;;;9.81;100.00;101254.22;5049733;28;20036;-66
2023/03/19 06:24:40;;;;;;;68.18;33.38;;;;;;;9.76;100.00;101264.00;5032065;28;20028;-66
2023/03/19 06:27:06;;;;;;;70.55;33.05;;;;;;;9.83;100.00;101262.09;5049593;28;20021;-66
2023/03/19 06:29:31;;;;;;;72.18;34.13;;;;;;;9.66;100.00;101270.38;5049246;28;20148;-66
2023/03/19 06:31:57;;;;;;;69.82;32.25;;;;;;;9.77;100.00;101276.25;5050095;28;20028;-67
2023/03/19 06:34:22;;;;;;;65.63;31.10;;;;;;;9.71;100.00;101273.75;5050100;28;20527;-66
2023/03/19 06:36:47;;;;;;;66.38;32.50;;;;;;;9.78;100.00;101290.28;5049527;28;20472;-64
2023/03/19 06:39:13;;;;;;;67.53;31.73;;;;;;;9.86;100.00;101288.34;5049846;28;20475;-67
2023/03/19 06:41:38;;;;;;;53.50;26.00;;;;;;;9.88;100.00;101280.41;5050303;28;20520;-66
2023/03/19 06:44:03;;;;;;;50.80;25.52;;;;;;;9.75;100.00;101291.22;5050413;28;20063;-65
2023/03/19 06:46:29;;;;;;;55.15;26.90;;;;;;;9.76;100.00;101286.81;5049440;28;20036;-66
2023/03/19 06:48:54;;;;;;;53.33;26.80;;;;;;;9.80;100.00;101289.34;5050432;28;20013;-65
2023/03/19 06:51:20;;;;;;;55.83;27.38;;;;;;;9.95;100.00;101300.41;5048891;28;20021;-65
2023/03/19 06:53:45;;;;;;;57.83;27.67;;;;;;;9.95;100.00;101308.31;5049331;28;20025;-64
2023/03/19 06:56:11;;;;;;;61.83;29.42;;;;;;;9.98;100.00;101297.69;5049682;28;20033;-66
2023/03/19 06:58:36;;;;;;;61.75;28.52;;;;;;;10.08;100.00;101306.22;5050301;28;20104;-67
2023/03/19 07:01:02;;;;;;;64.45;30.33;;;;;;;10.05;100.00;101303.69;5048522;28;20071;-66
2023/03/19 07:03:27;;;;;;;67.80;29.63;;;;;;;10.06;100.00;101311.53;5049405;28;20025;-66
2023/03/19 07:05:53;;;;;;;66.63;29.70;;;;;;;10.18;100.00;101315.63;5047955;28;20025;-65
2023/03/19 07:08:18;;;;;;;65.05;31.60;;;;;;;10.15;100.00;101320.13;5048189;28;20096;-65
2023/03/19 07:10:44;;;;;;;67.88;30.10;;;;;;;10.35;100.00;101323.13;5031465;28;20668;-66
2023/03/19 07:13:09;;;;;;;66.07;31.13;;;;;;;10.52;100.00;101319.22;5048831;28;20162;-66
2023/03/19 07:15:35;;;;;;;68.13;29.65;;;;;;;10.47;100.00;101321.09;5047521;28;20535;-66
2023/03/19 07:18:01;;;;;;;65.13;27.77;;;;;;;10.72;100.00;101326.59;5047816;28;20469;-66
2023/03/19 07:20:26;;;;;;;65.10;27.08;;;;;;;10.50;100.00;101326.31;5047588;28;20115;-66
2023/03/19 07:22:51;;;;;;;58.97;26.35;;;;;;;10.54;100.00;101320.03;5047867;28;20025;-65
2023/03/19 07:25:17;;;;;;;58.53;25.42;;;;;;;10.75;100.00;101328.31;5048064;28;20366;-66
2023/03/19 07:27:43;;;;;;;59.85;26.88;;;;;;;10.90;100.00;101329.66;5048136;28;20174;-66
2023/03/19 07:30:11;;;;;;;56.88;26.60;;;;;;;11.05;100.00;101327.50;5047475;28;20033;-67
2023/03/19 07:32:37;;;;;;;55.20;25.90;;;;;;;11.14;100.00;101332.53;5047912;28;20485;-65
2023/03/19 07:35:04;;;;;;;53.10;24.75;;;;;;;11.17;100.00;101337.69;5047004;28;20040;-65
2023/03/19 07:37:30;;;;;;;52.17;24.23;;;;;;;11.21;100.00;101334.09;5029459;28;20155;-66
2023/03/19 07:39:55;;;;;;;46.60;22.77;;;;;;;11.28;100.00;101339.16;5048011;28;20124;-66
2023/03/19 07:42:20;;;;;;;46.38;22.60;;;;;;;11.22;100.00;101341.06;5047597;28;20028;-66
2023/03/19 07:44:46;;;;;;;47.10;23.15;;;;;;;11.30;100.00;101340.88;5047703;28;20108;-66
2023/03/19 07:47:11;;;;;;;44.42;23.10;;;;;;;11.50;100.00;101344.69;5047231;28;20048;-66
2023/03/19 07:49:36;;;;;;;48.50;23.50;;;;;;;11.57;100.00;101345.38;5048177;28;20021;-65
2023/03/19 07:52:02;;;;;;;46.80;23.45;;;;;;;11.52;100.00;101352.53;5046957;28;20040;-65
2023/03/19 07:54:27;;;;;;;48.55;25.52;;;;;;;11.37;100.00;101352.09;5046711;28;20016;-66
2023/03/19 07:56:52;;;;;;;51.22;25.02;;;;;;;11.38;100.00;101349.41;5047327;28;20029;-65
2023/03/19 07:59:18;;;;;;;46.53;23.30;;;;;;;11.30;100.00;101351.41;5047147;28;20483;-65
2023/03/19 08:01:43;;;;;;;52.42;24.90;;;;;;;11.19;100.00;101358.75;5046535;28;20465;-66
2023/03/19 08:04:09;;;;;;;50.65;24.15;;;;;;;11.15;100.00;101359.75;5047093;28;20021;-66
2023/03/19 08:06:34;;;;;;;49.58;25.42;;;;;;;11.26;100.00;101357.69;5046707;28;20088;-65
2023/03/19 08:09:00;;;;;;;53.75;27.02;;;;;;;11.16;100.00;101361.47;5046436;28;20031;-65
2023/03/19 08:11:25;;;;;;;61.03;27.35;;;;;;;11.08;100.00;101365.19;5047085;28;20135;-65
2023/03/19 08:13:50;;;;;;;52.58;27.05;;;;;;;10.96;100.00;101371.66;5047062;28;20025;-65
2023/03/19 08:16:16;;;;;;;62.95;29.05;;;;;;;10.92;100.00;101374.41;5046381;28;20095;-66
2023/03/19 08:18:41;;;;;;;59.65;29.08;;;;;;;11.07;100.00;101376.66;5046565;28;20056;-66
2023/03/19 08:21:07;;;;;;;58.72;28.58;;;;;;;10.96;100.00;101381.38;5046516;28;20387;-66
2023/03/19 08:23:32;;;;;;;56.13;27.77;;;;;;;10.91;100.00;101396.44;5046075;28;20167;-66
2023/03/19 08:25:58;;;;;;;58.22;27.63;;;;;;;10.88;100.00;101394.75;5046958;28;20074;-66
2023/03/19 08:28:23;;;;;;;61.70;27.02;;;;;;;11.03;100.00;101387.31;5046615;28;20017;-67
2023/03/19 08:30:48;;;;;;;58.30;28.42;;;;;;;11.09;100.00;101388.03;5046364;28;20017;-67
2023/03/19 08:33:14;;;;;;;63.30;28.92;;;;;;;10.96;100.00;101387.47;5046587;28;20032;-66
2023/03/19 08:35:40;;;;;;;64.05;27.85;;;;;;;10.87;100.00;101398.31;5046221;28;20025;-66
2023/03/19 08:38:05;;;;;;;72.32;29.98;;;;;;;10.77;100.00;101399.44;5028888;28;20052;-66
2023/03/19 08:40:31;;;;;;;68.40;29.58;;;;;;;10.83;100.00;101407.16;5046173;28;20488;-65
2023/03/19 08:42:56;;;;;;;72.38;30.10;;;;;;;10.93;100.00;101411.28;5028416;28;20071;-66
2023/03/19 08:45:22;;;;;;;60.65;28.15;;;;;;;10.86;100.00;101407.97;5045086;28;20477;-66
2023/03/19 08:47:48;;;;;;;62.92;28.52;;;;;;;10.87;100.00;101412.31;5046043;28;20033;-66
2023/03/19 08:50:14;;;;;;;65.10;30.02;;;;;;;10.99;100.00;101418.19;5044880;28;20025;-68
2023/03/19 08:52:39;;;;;;;67.10;30.23;;;;;;;11.14;100.00;101416.06;5046616;28;20032;-66
2023/03/19 08:55:06;;;;;;;74.13;32.13;;;;;;;11.29;100.00;101420.88;5045673;28;20384;-66
2023/03/19 08:57:32;;;;;;;72.63;31.38;;;;;;;11.27;100.00;101428.00;5027434;28;20375;-68
2023/03/19 08:59:57;;;;;;;73.30;31.27;;;;;;;11.23;100.00;101419.28;5037380;28;20155;-66
2023/03/19 09:02:22;;;;;;;74.13;32.10;;;;;;;11.31;100.00;101415.56;5027230;28;20036;-66
2023/03/19 09:04:48;;;;;;;70.22;30.30;;;;;;;11.36;100.00;101422.47;5042993;28;20040;-67
2023/03/19 09:07:14;;;;;;;75.50;31.52;;;;;;;11.40;100.00;101425.00;5032757;28;20479;-65
2023/03/19 09:09:41;;;;;;;67.38;29.42;;;;;;;11.39;100.00;101426.78;5034288;28;20523;-65
2023/03/19 09:12:08;;;;;;;71.25;29.40;;;;;;;11.50;100.00;101430.00;5035322;28;20041;-64
2023/03/19 09:14:34;;;;;;;63.88;28.60;;;;;;;11.49;100.00;101428.28;5014548;28;20088;-65
2023/03/19 09:16:59;;;;;;;67.07;27.88;;;;;;;11.70;100.00;101428.56;5036416;28;20031;-66
2023/03/19 09:19:24;;;;;;;76.18;29.23;;;;;;;11.82;100.00;101434.38;5035357;28;20038;-65
2023/03/19 09:21:50;;;;;;;59.88;26.60;;;;;;;11.85;100.00;101435.16;5032733;28;20033;-64
2023/03/19 09:24:15;;;;;;;65.82;27.38;;;;;;;11.81;100.00;101430.88;5035361;28;20031;-64
2023/03/19 09:26:41;;;;;;;66.00;27.42;;;;;;;11.93;100.00;101431.41;5035782;28;20060;-66
2023/03/19 09:29:06;;;;;;;66.07;28.05;;;;;;;11.92;100.00;101441.09;5036088;28;20036;-67
2023/03/19 09:31:32;;;;;;;66.80;28.52;;;;;;;11.75;100.00;101439.00;5037090;28;20162;-67
2023/03/19 09:33:57;;;;;;;63.13;28.15;;;;;;;11.98;100.00;101440.94;5046761;28;20494;-66
2023/03/19 09:36:23;;;;;;;61.03;26.38;;;;;;;12.17;100.00;101435.13;5044939;28;20399;-65
2023/03/19 09:38:48;;;;;;;56.65;25.40;;;;;;;12.25;100.00;101442.78;5040916;28;20550;-66
2023/03/19 09:41:59;;;;;;;63.55;26.67;;;;;;;11.98;100.00;101440.09;5037117;28;20554;-66
2023/03/19 09:44:34;;;;;;;59.53;25.70;;;;;;;12.15;100.00;101446.63;4960438;28;20431;-67
2023/03/19 09:47:11;;;;;;;53.67;24.42;;;;;;;12.11;100.00;101452.03;5027159;28;20422;-66
2023/03/19 09:49:42;;;;;;;51.50;23.90;;;;;;;12.21;100.00;101457.91;5045209;28;20401;-66
2023/03/19 09:52:25;;;;;;;52.65;23.08;;;;;;;12.32;100.00;101469.91;5012796;28;20033;-66
2023/03/19 09:54:52;;;;;;;50.90;23.48;;;;;;;12.31;100.00;101469.03;5043848;28;20040;-66
2023/03/19 09:57:17;;;;;;;47.25;22.95;;;;;;;12.41;100.00;101474.91;5030930;28;20032;-65
2023/03/19 09:59:43;;;;;;;57.30;23.63;;;;;;;12.32;100.00;101480.47;5037602;28;20036;-65
2023/03/19 10:02:28;;;;;;;55.92;24.40;;;;;;;12.20;100.00;101481.72;5011448;28;20063;-66
2023/03/19 10:05:04;;;;;;;54.45;23.90;;;;;;;12.20;100.00;101481.72;5016126;28;20389;-65
2023/03/19 10:07:54;;;;;;;56.40;23.98;;;;;;;12.12;100.00;101496.03;5047171;28;20013;-65
2023/03/19 10:10:36;;;;;;;52.63;23.10;;;;;;;12.08;100.00;101490.88;5044011;28;20029;-65
2023/03/19 10:13:07;;;;;;;55.55;24.27;;;;;;;11.96;100.00;101500.00;5041482;28;20653;-67
2023/03/19 10:15:34;;;;;;;62.65;25.67;;;;;;;11.85;100.00;101497.66;5039034;28;20030;-67
2023/03/19 10:18:04;;;;;;;60.85;26.67;;;;;;;11.82;100.00;101489.81;5027206;28;20013;-65
2023/03/19 10:20:37;;;;;;;62.72;25.65;;;;;;;11.91;100.00;101491.34;5035921;28;20070;-65
2023/03/19 10:23:22;;;;;;;56.53;25.88;;;;;;;11.99;100.00;101502.56;5042135;28;20022;-66
2023/03/19 10:25:49;;;;;;;56.92;26.00;;;;;;;11.96;100.00;101503.53;5041204;28;20025;-65
2023/03/19 10:28:17;;;;;;;56.97;23.88;;;;;;;11.92;100.00;101511.56;5019985;28;20018;-65
2023/03/19 10:30:49;;;;;;;57.88;24.55;;;;;;;12.12;100.00;101517.16;5021024;28;20539;-66
2023/03/19 10:33:23;;;;;;;46.25;21.63;;;;;;;12.11;100.00;101515.44;5036880;28;20027;-65
2023/03/19 10:36:02;;;;;;;42.63;19.73;;;;;;;12.08;100.00;101515.53;5036732;28;20030;-65
2023/03/19 10:38:28;;;;;;;43.72;20.60;;;;;;;12.18;100.00;101518.75;5020351;28;20428;-64
2023/03/19 10:41:22;;;;;;;48.92;20.85;;;;;;;12.12;100.00;101519.81;5039697;28;20436;-66
2023/03/19 10:43:58;;;;;;;46.00;19.88;;;;;;;12.18;100.00;101525.81;5001453;28;20076;-66
2023/03/19 10:46:23;;;;;;;48.17;19.48;;;;;;;12.17;100.00;101526.72;5047635;28;20017;-64
2023/03/19 10:48:49;;;;;;;46.97;20.95;;;;;;;12.36;100.00;101519.97;5039350;28;20025;-65
2023/03/19 10:51:25;;;;;;;44.63;19.50;;;;;;;12.42;100.00;101521.56;5037611;28;20021;-65
2023/03/19 10:53:52;;;;;;;45.42;20.45;;;;;;;12.53;100.00;101520.38;5023841;28;20059;-65
2023/03/19 10:56:24;;;;;;;44.08;20.30;;;;;;;12.45;100.00;101523.25;5030430;28;20041;-65
2023/03/19 10:58:56;;;;;;;50.30;22.50;;;;;;;12.44;100.00;101525.03;5039707;28;20091;-65
2023/03/19 11:01:26;;;;;;;45.05;20.75;;;;;;;12.50;100.00;101531.91;5042107;28;20528;-66
2023/03/19 11:03:59;;;;;;;40.78;19.88;;;;;;;12.58;100.00;101534.31;5036904;28;20104;-64